createdAt,value
2017-08-31T00:00:39.433Z,83.70
2017-08-31T00:03:07.434Z,83.58
2017-08-31T00:05:35.201Z,84.17
2017-08-31T00:08:02.910Z,84.50
2017-08-31T00:10:30.695Z,85.66
2017-08-31T00:12:58.445Z,86.36
2017-08-31T00:15:26.216Z,85.27
2017-08-31T00:17:54.022Z,84.53
2017-08-31T00:20:21.802Z,84.24
2017-08-31T00:22:49.492Z,84.05
2017-08-31T00:25:17.313Z,84.24
2017-08-31T00:27:45.113Z,84.11
2017-08-31T00:30:13.741Z,83.30
2017-08-31T00:32:41.487Z,84.05
2017-08-31T00:35:09.254Z,84.22
2017-08-31T00:37:37.083Z,83.53
2017-08-31T00:40:04.849Z,84.11
2017-08-31T00:42:32.665Z,84.46
2017-08-31T00:45:00.433Z,84.72
2017-08-31T00:47:28.223Z,84.33
2017-08-31T00:49:56.158Z,84.16
2017-08-31T00:52:23.952Z,83.83
2017-08-31T00:54:51.739Z,84.03
2017-08-31T00:57:19.490Z,84.88
2017-08-31T00:59:47.197Z,86.09
2017-08-31T01:02:15.939Z,86.17
2017-08-31T01:04:43.721Z,84.98
2017-08-31T01:07:11.475Z,84.03
2017-08-31T01:09:39.240Z,85.29
2017-08-31T01:12:07.022Z,85.38
2017-08-31T01:14:34.711Z,84.65
2017-08-31T01:17:02.492Z,84.81
2017-08-31T01:19:30.254Z,84.84
2017-08-31T01:21:57.980Z,85.17
2017-08-31T01:24:25.815Z,85.39
2017-08-31T01:26:53.662Z,85.28
2017-08-31T01:29:21.441Z,85.40
2017-08-31T01:31:50.045Z,85.79
2017-08-31T01:34:17.852Z,85.29
2017-08-31T01:36:45.584Z,85.18
2017-08-31T01:39:13.385Z,85.36
2017-08-31T01:41:41.173Z,85.30
2017-08-31T01:44:08.915Z,86.24
2017-08-31T01:46:36.784Z,85.50
2017-08-31T01:49:04.773Z,85.60
2017-08-31T01:51:32.571Z,85.39
2017-08-31T01:54:01.151Z,84.78
2017-08-31T01:56:28.884Z,85.18
2017-08-31T01:58:56.688Z,85.19
2017-08-31T02:01:24.427Z,85.38
2017-08-31T02:03:52.143Z,85.56
2017-08-31T02:06:19.956Z,85.50
2017-08-31T02:08:47.721Z,85.19
2017-08-31T02:11:15.456Z,85.35
2017-08-31T02:13:43.242Z,85.27
2017-08-31T02:16:11.027Z,85.12
2017-08-31T02:18:38.717Z,85.53
2017-08-31T02:21:06.501Z,85.17
2017-08-31T02:23:34.234Z,84.83
2017-08-31T02:26:02.033Z,84.84
2017-08-31T02:28:29.733Z,85.49
2017-08-31T02:30:57.518Z,85.39
2017-08-31T02:33:25.304Z,84.79
2017-08-31T02:35:53.075Z,84.96
2017-08-31T02:38:20.779Z,85.25
2017-08-31T02:40:48.486Z,85.07
2017-08-31T02:43:16.236Z,85.27
2017-08-31T02:45:43.934Z,86.00
2017-08-31T02:48:11.673Z,85.58
2017-08-31T02:50:39.459Z,85.55
2017-08-31T02:53:07.175Z,85.95
2017-08-31T02:55:34.954Z,85.23
2017-08-31T02:58:02.663Z,86.00
2017-08-31T03:00:30.438Z,85.59
2017-08-31T03:02:58.215Z,85.59
2017-08-31T03:05:25.961Z,85.85
2017-08-31T03:07:54.363Z,85.09
2017-08-31T03:10:22.060Z,85.18
2017-08-31T03:12:49.834Z,85.90
2017-08-31T03:15:17.583Z,85.32
2017-08-31T03:17:45.339Z,84.85
2017-08-31T03:20:13.137Z,85.16
2017-08-31T03:22:41.108Z,85.46
2017-08-31T03:25:08.842Z,85.80
2017-08-31T03:27:36.552Z,85.90
2017-08-31T03:30:04.390Z,85.89
2017-08-31T03:32:32.138Z,87.24
2017-08-31T03:34:59.896Z,86.58
2017-08-31T03:37:27.604Z,86.14
2017-08-31T03:39:55.386Z,86.33
2017-08-31T03:42:23.124Z,86.58
2017-08-31T03:44:50.917Z,86.88
2017-08-31T03:47:18.728Z,86.34
2017-08-31T03:49:46.481Z,87.73
2017-08-31T03:52:14.332Z,87.85
2017-08-31T03:54:42.032Z,87.06
2017-08-31T03:57:09.793Z,87.47
2017-08-31T03:59:37.592Z,87.85
2017-08-31T04:02:05.470Z,87.41
2017-08-31T04:04:33.216Z,87.07
2017-08-31T04:07:00.907Z,87.44
2017-08-31T04:09:28.602Z,87.38
2017-08-31T04:11:56.407Z,87.05
2017-08-31T04:14:24.125Z,87.02
2017-08-31T04:16:51.874Z,86.96
2017-08-31T04:19:19.568Z,87.28
2017-08-31T04:21:47.321Z,87.44
2017-08-31T04:24:15.054Z,88.17
2017-08-31T04:26:42.773Z,87.10
2017-08-31T04:29:10.547Z,87.18
2017-08-31T04:31:38.346Z,87.61
2017-08-31T04:34:06.107Z,86.81
2017-08-31T04:36:33.804Z,86.59
2017-08-31T04:39:01.780Z,86.60
2017-08-31T04:41:29.996Z,87.38
2017-08-31T04:43:57.724Z,88.01
2017-08-31T04:46:25.569Z,87.70
2017-08-31T04:48:53.394Z,86.93
2017-08-31T04:51:21.249Z,86.75
2017-08-31T04:53:49.015Z,86.92
2017-08-31T04:56:16.726Z,86.70
2017-08-31T04:58:44.530Z,86.55
2017-08-31T05:01:12.355Z,86.44
2017-08-31T05:03:40.149Z,86.32
2017-08-31T05:06:07.929Z,86.45
2017-08-31T05:08:35.759Z,86.15
2017-08-31T05:11:03.538Z,86.29
2017-08-31T05:13:31.294Z,84.84
2017-08-31T05:15:59.169Z,78.33
2017-08-31T05:18:26.947Z,73.38
2017-08-31T05:20:54.803Z,69.43
2017-08-31T05:23:22.599Z,66.39
2017-08-31T05:25:50.431Z,69.39
2017-08-31T05:28:18.286Z,73.75
2017-08-31T05:30:46.097Z,75.79
2017-08-31T05:33:15.014Z,77.90
2017-08-31T05:35:42.891Z,79.00
2017-08-31T05:38:10.737Z,80.17
2017-08-31T05:40:38.560Z,79.93
2017-08-31T05:43:06.508Z,79.27
2017-08-31T05:45:34.460Z,79.74
2017-08-31T05:48:02.318Z,79.03
2017-08-31T05:50:35.313Z,78.09
2017-08-31T05:53:03.162Z,78.79
2017-08-31T05:55:30.979Z,79.35
2017-08-31T05:57:58.809Z,78.56
2017-08-31T06:00:26.725Z,77.92
2017-08-31T06:02:54.608Z,77.23
2017-08-31T06:05:22.438Z,78.11
2017-08-31T06:07:50.259Z,77.50
2017-08-31T06:10:18.098Z,76.77
2017-08-31T06:12:45.843Z,75.93
2017-08-31T06:15:13.696Z,77.14
2017-08-31T06:17:41.465Z,79.21
2017-08-31T06:20:09.376Z,78.87
2017-08-31T06:22:37.088Z,79.23
2017-08-31T06:25:04.968Z,77.98
2017-08-31T06:27:32.736Z,77.58
2017-08-31T06:30:00.438Z,76.55
2017-08-31T06:32:28.238Z,75.48
2017-08-31T06:34:56.028Z,74.13
2017-08-31T06:37:23.748Z,74.28
2017-08-31T06:39:51.527Z,75.26
2017-08-31T06:42:19.274Z,74.44
2017-08-31T06:44:46.973Z,73.82
2017-08-31T06:47:14.744Z,73.42
2017-08-31T06:49:42.461Z,73.40
2017-08-31T06:52:10.184Z,71.72
2017-08-31T06:54:37.948Z,72.01
2017-08-31T06:57:05.664Z,72.02
2017-08-31T06:59:33.418Z,72.12
2017-08-31T07:02:01.117Z,71.86
2017-08-31T07:04:28.814Z,72.21
2017-08-31T07:06:57.708Z,72.10
2017-08-31T07:09:25.479Z,71.60
2017-08-31T07:11:53.304Z,72.27
2017-08-31T07:14:21.056Z,71.62
2017-08-31T07:16:48.838Z,70.20
2017-08-31T07:19:16.618Z,71.86
2017-08-31T07:21:44.383Z,71.21
2017-08-31T07:24:12.107Z,69.66
2017-08-31T07:26:39.911Z,70.17
2017-08-31T07:29:07.718Z,71.85
2017-08-31T07:31:35.401Z,71.97
2017-08-31T07:34:03.511Z,71.15
2017-08-31T07:36:31.219Z,71.60
2017-08-31T07:38:59.002Z,69.95
2017-08-31T07:41:26.889Z,69.10
2017-08-31T07:43:54.593Z,68.14
2017-08-31T07:46:22.434Z,67.55
2017-08-31T07:48:50.169Z,67.73
2017-08-31T07:51:17.933Z,68.37
2017-08-31T07:53:45.703Z,67.73
2017-08-31T07:56:13.470Z,66.57
2017-08-31T07:58:41.286Z,66.46
2017-08-31T08:01:08.986Z,65.90
2017-08-31T08:03:36.804Z,66.41
2017-08-31T08:06:04.571Z,64.66
2017-08-31T08:08:32.290Z,64.44
2017-08-31T08:11:00.068Z,65.50
2017-08-31T08:13:27.771Z,65.95
2017-08-31T08:15:55.976Z,65.06
2017-08-31T08:18:23.736Z,64.57
2017-08-31T08:20:51.450Z,65.19
2017-08-31T08:23:19.229Z,65.01
2017-08-31T08:25:47.017Z,62.78
2017-08-31T08:28:14.774Z,61.42
2017-08-31T08:30:42.572Z,61.81
2017-08-31T08:33:10.270Z,61.08
2017-08-31T08:35:37.997Z,60.46
2017-08-31T08:38:05.858Z,60.07
2017-08-31T08:40:33.611Z,60.20
2017-08-31T08:43:01.379Z,59.11
2017-08-31T08:45:29.183Z,61.47
2017-08-31T08:47:57.007Z,61.28
2017-08-31T08:50:24.808Z,61.14
2017-08-31T08:52:52.612Z,61.26
2017-08-31T08:55:20.353Z,60.24
2017-08-31T08:57:48.142Z,57.75
2017-08-31T09:00:15.958Z,58.33
2017-08-31T09:02:43.661Z,61.37
2017-08-31T09:05:11.446Z,60.14
2017-08-31T09:07:39.193Z,57.17
2017-08-31T09:10:06.888Z,57.94
2017-08-31T09:12:34.663Z,60.41
2017-08-31T09:15:02.491Z,56.57
2017-08-31T09:17:30.172Z,58.16
2017-08-31T09:19:57.981Z,57.25
2017-08-31T09:22:25.789Z,57.15
2017-08-31T09:24:53.966Z,56.26
2017-08-31T09:27:21.814Z,56.99
2017-08-31T09:29:49.630Z,57.12
2017-08-31T09:32:17.367Z,57.42
2017-08-31T09:34:45.205Z,55.78
2017-08-31T09:37:12.981Z,54.45
2017-08-31T09:39:40.749Z,55.56
2017-08-31T09:42:08.496Z,54.86
2017-08-31T09:44:36.171Z,51.81
2017-08-31T09:47:03.960Z,53.23
2017-08-31T09:49:31.792Z,51.36
2017-08-31T09:51:59.506Z,50.96
2017-08-31T09:54:27.393Z,50.60
2017-08-31T09:56:55.347Z,48.89
2017-08-31T09:59:23.961Z,51.76
2017-08-31T10:01:51.676Z,51.37
2017-08-31T10:04:19.501Z,52.25
2017-08-31T10:06:47.264Z,52.40
2017-08-31T10:09:15.063Z,51.82
2017-08-31T10:11:42.787Z,52.68
2017-08-31T10:14:10.686Z,52.35
2017-08-31T10:16:38.480Z,52.06
2017-08-31T10:19:06.256Z,50.92
2017-08-31T10:21:33.973Z,52.84
2017-08-31T10:24:01.827Z,51.61
2017-08-31T10:26:29.599Z,50.80
2017-08-31T10:28:57.375Z,49.94
2017-08-31T10:31:25.279Z,47.34
2017-08-31T10:33:53.129Z,49.37
2017-08-31T10:36:20.942Z,47.56
2017-08-31T10:38:48.912Z,50.07
2017-08-31T10:41:16.737Z,49.55
2017-08-31T10:43:44.634Z,47.69
2017-08-31T10:46:12.375Z,47.66
2017-08-31T10:48:40.324Z,46.72
2017-08-31T10:51:08.154Z,45.80
2017-08-31T10:53:35.983Z,47.72
2017-08-31T10:56:03.973Z,47.50
2017-08-31T10:58:31.977Z,48.01
2017-08-31T11:00:59.855Z,47.27
2017-08-31T11:03:27.730Z,45.13
2017-08-31T11:05:55.501Z,44.02
2017-08-31T11:08:23.435Z,43.82
2017-08-31T11:10:51.249Z,44.24
2017-08-31T11:13:19.147Z,44.47
2017-08-31T11:15:46.954Z,44.19
2017-08-31T11:18:14.807Z,44.42
2017-08-31T11:20:42.632Z,45.01
2017-08-31T11:23:10.486Z,44.61
2017-08-31T11:25:38.332Z,45.85
2017-08-31T11:28:06.229Z,43.83
2017-08-31T11:30:34.141Z,44.46
2017-08-31T11:33:02.003Z,45.27
2017-08-31T11:35:29.857Z,43.84
2017-08-31T11:37:57.827Z,44.07
2017-08-31T11:40:25.606Z,45.02
2017-08-31T11:42:53.299Z,44.07
2017-08-31T11:45:21.099Z,43.35
2017-08-31T11:47:48.862Z,43.12
2017-08-31T11:50:16.601Z,44.02
2017-08-31T11:52:44.430Z,44.26
2017-08-31T11:55:12.256Z,44.20
2017-08-31T11:57:40.045Z,43.95
2017-08-31T12:00:07.815Z,43.51
2017-08-31T12:02:35.562Z,44.42
2017-08-31T12:05:04.282Z,44.14
2017-08-31T12:07:33.135Z,43.87
2017-08-31T12:10:01.150Z,42.41
2017-08-31T12:12:29.358Z,41.74
2017-08-31T12:14:57.121Z,42.72
2017-08-31T12:17:25.872Z,37.00
2017-08-31T12:19:54.353Z,40.27
2017-08-31T12:22:22.070Z,41.25
2017-08-31T12:24:49.837Z,42.48
2017-08-31T12:27:17.573Z,43.56
2017-08-31T12:29:45.405Z,42.69
2017-08-31T12:32:15.411Z,40.12
2017-08-31T12:34:43.100Z,42.56
2017-08-31T12:37:12.051Z,41.61
2017-08-31T12:39:39.801Z,40.64
2017-08-31T12:42:07.671Z,41.37
2017-08-31T12:44:36.573Z,42.33
2017-08-31T12:47:04.352Z,40.87
2017-08-31T12:49:32.153Z,43.95
2017-08-31T12:51:59.910Z,42.46
2017-08-31T12:54:27.688Z,42.25
2017-08-31T12:56:55.473Z,44.00
2017-08-31T12:59:24.186Z,43.05
2017-08-31T13:01:52.275Z,43.26
2017-08-31T13:04:20.003Z,43.96
2017-08-31T13:06:47.837Z,42.67
2017-08-31T13:09:15.617Z,40.61
2017-08-31T13:11:43.472Z,40.39
2017-08-31T13:14:11.182Z,39.06
2017-08-31T13:16:38.974Z,42.78
2017-08-31T13:19:06.668Z,44.00
2017-08-31T13:21:34.430Z,45.41
2017-08-31T13:24:02.204Z,43.52
2017-08-31T13:26:29.955Z,44.60
2017-08-31T13:28:57.836Z,43.69
2017-08-31T13:31:25.610Z,46.01
2017-08-31T13:33:53.599Z,46.15
2017-08-31T13:36:21.347Z,43.97
2017-08-31T13:38:49.101Z,45.04
2017-08-31T13:41:17.298Z,43.78
2017-08-31T13:43:45.059Z,42.77
2017-08-31T13:46:13.141Z,45.80
2017-08-31T13:48:40.896Z,45.49
2017-08-31T13:51:08.667Z,49.00
2017-08-31T13:53:36.388Z,48.43
2017-08-31T13:56:04.181Z,48.17
2017-08-31T13:58:31.972Z,48.31
2017-08-31T14:00:59.918Z,50.38
2017-08-31T14:03:27.878Z,51.03
2017-08-31T14:05:55.585Z,51.88
2017-08-31T14:08:23.346Z,52.61
2017-08-31T14:10:51.224Z,54.46
2017-08-31T14:13:18.990Z,54.77
2017-08-31T14:15:46.787Z,52.83
2017-08-31T14:18:14.492Z,53.04
2017-08-31T14:20:43.219Z,54.07
2017-08-31T14:23:10.971Z,56.72
2017-08-31T14:25:39.862Z,57.14
2017-08-31T14:28:07.603Z,57.52
2017-08-31T14:30:36.390Z,57.93
2017-08-31T14:33:04.164Z,57.59
2017-08-31T14:35:32.135Z,58.42
2017-08-31T14:37:59.897Z,57.51
2017-08-31T14:40:28.492Z,51.83
2017-08-31T14:42:56.277Z,51.18
2017-08-31T14:45:24.125Z,49.32
2017-08-31T14:47:51.891Z,48.93
2017-08-31T14:50:19.763Z,49.04
2017-08-31T14:52:47.777Z,50.33
2017-08-31T14:55:15.574Z,49.46
2017-08-31T14:57:43.398Z,50.65
2017-08-31T15:00:11.190Z,52.86
2017-08-31T15:02:38.931Z,53.56
2017-08-31T15:05:06.720Z,53.05
2017-08-31T15:07:34.405Z,54.00
2017-08-31T15:10:02.242Z,54.19
2017-08-31T15:12:29.987Z,56.74
2017-08-31T15:14:57.779Z,59.04
2017-08-31T15:17:26.554Z,67.75
2017-08-31T15:19:56.690Z,68.73
2017-08-31T15:22:24.557Z,67.02
2017-08-31T15:24:52.330Z,64.87
2017-08-31T15:27:20.173Z,67.49
2017-08-31T15:29:48.082Z,68.08
2017-08-31T15:32:15.822Z,67.34
2017-08-31T15:34:44.273Z,66.52
2017-08-31T15:37:12.750Z,66.66
2017-08-31T15:39:40.471Z,67.11
2017-08-31T15:42:08.249Z,68.23
2017-08-31T15:44:35.976Z,69.08
2017-08-31T15:47:03.721Z,68.65
2017-08-31T15:49:31.477Z,69.29
2017-08-31T15:51:59.278Z,70.58
2017-08-31T15:54:27.041Z,72.09
2017-08-31T15:56:54.710Z,73.10
2017-08-31T15:59:22.477Z,72.27
2017-08-31T16:01:50.265Z,72.94
2017-08-31T16:04:18.114Z,73.91
2017-08-31T16:06:45.949Z,73.12
2017-08-31T16:09:13.762Z,73.06
2017-08-31T16:11:41.527Z,73.94
2017-08-31T16:14:09.478Z,74.42
2017-08-31T16:16:37.281Z,74.29
2017-08-31T16:19:05.033Z,75.22
2017-08-31T16:21:32.894Z,74.92
2017-08-31T16:24:00.679Z,74.59
2017-08-31T16:26:28.426Z,76.70
2017-08-31T16:28:56.135Z,77.31
2017-08-31T16:31:23.932Z,77.96
2017-08-31T16:33:52.986Z,77.23
2017-08-31T16:36:20.712Z,77.13
2017-08-31T16:38:48.559Z,77.69
2017-08-31T16:41:16.301Z,80.62
2017-08-31T16:43:44.033Z,81.45
2017-08-31T16:46:12.638Z,80.79
2017-08-31T16:48:40.381Z,79.93
2017-08-31T16:51:08.446Z,80.64
2017-08-31T16:53:36.202Z,80.41
2017-08-31T16:56:04.140Z,80.55
2017-08-31T16:58:31.855Z,80.21
2017-08-31T17:00:59.716Z,80.15
2017-08-31T17:03:27.644Z,81.77
2017-08-31T17:05:56.166Z,82.23
2017-08-31T17:08:23.964Z,80.38
2017-08-31T17:10:51.687Z,80.67
2017-08-31T17:13:19.431Z,82.68
2017-08-31T17:15:47.965Z,82.69
2017-08-31T17:18:15.740Z,83.31
2017-08-31T17:20:43.455Z,82.17
2017-08-31T17:23:11.309Z,82.33
2017-08-31T17:25:39.164Z,82.14
2017-08-31T17:28:06.897Z,80.12
2017-08-31T17:30:34.662Z,79.04
2017-08-31T17:33:03.534Z,81.03
2017-08-31T17:35:31.377Z,79.88
2017-08-31T17:37:59.091Z,81.41
2017-08-31T17:40:26.835Z,82.55
2017-08-31T17:42:54.614Z,82.57
2017-08-31T17:45:22.606Z,80.76
2017-08-31T17:47:50.307Z,79.65
2017-08-31T17:50:18.144Z,79.22
2017-08-31T17:52:45.914Z,80.03
2017-08-31T17:55:13.689Z,79.86
2017-08-31T17:57:41.441Z,81.75
2017-08-31T18:00:09.213Z,84.21
2017-08-31T18:02:37.290Z,83.51
2017-08-31T18:05:05.581Z,82.93
2017-08-31T18:07:33.386Z,83.40
2017-08-31T18:10:01.164Z,82.29
2017-08-31T18:12:30.076Z,82.44
2017-08-31T18:14:58.056Z,82.26
2017-08-31T18:17:25.879Z,83.80
2017-08-31T18:19:53.612Z,84.15
2017-08-31T18:22:21.766Z,83.61
2017-08-31T18:24:49.640Z,83.46
2017-08-31T18:27:17.603Z,83.06
2017-08-31T18:29:45.380Z,83.83
2017-08-31T18:32:13.843Z,83.84
2017-08-31T18:34:41.628Z,82.84
2017-08-31T18:37:09.819Z,82.86
2017-08-31T18:39:38.229Z,83.60
2017-08-31T18:42:06.637Z,85.06
2017-08-31T18:44:35.783Z,84.95
2017-08-31T18:47:03.583Z,84.36
2017-08-31T18:49:31.562Z,83.78
2017-08-31T18:52:01.416Z,85.48
2017-08-31T18:54:30.213Z,84.56
2017-08-31T18:56:58.224Z,82.40
2017-08-31T18:59:27.091Z,82.53
2017-08-31T19:01:56.213Z,83.80
2017-08-31T19:04:24.714Z,84.53
2017-08-31T19:06:52.801Z,85.34
2017-08-31T19:09:21.562Z,85.56
2017-08-31T19:11:49.597Z,83.79
2017-08-31T19:14:17.379Z,83.82
2017-08-31T19:16:45.259Z,83.94
2017-08-31T19:19:13.059Z,83.59
2017-08-31T19:21:41.126Z,83.97
2017-08-31T19:24:08.882Z,83.93
2017-08-31T19:26:36.832Z,85.19
2017-08-31T19:29:04.726Z,83.83
2017-08-31T19:31:32.601Z,84.07
2017-08-31T19:34:00.401Z,83.84
2017-08-31T19:36:28.329Z,85.00
2017-08-31T19:38:57.361Z,82.48
2017-08-31T19:41:25.211Z,81.15
2017-08-31T19:43:53.058Z,79.14
2017-08-31T19:46:20.997Z,78.38
2017-08-31T19:48:49.216Z,80.56
2017-08-31T19:51:17.053Z,80.97
2017-08-31T19:53:44.869Z,83.13
2017-08-31T19:56:12.660Z,82.57
2017-08-31T19:58:40.472Z,85.01
2017-08-31T20:01:08.314Z,85.22
2017-08-31T20:03:36.031Z,84.05
2017-08-31T20:06:03.826Z,83.61
2017-08-31T20:08:31.648Z,85.21
2017-08-31T20:10:59.458Z,85.62
2017-08-31T20:13:27.246Z,85.21
2017-08-31T20:15:55.020Z,83.94
2017-08-31T20:18:22.776Z,82.43
2017-08-31T20:48:16.796Z,84.67
2017-08-31T20:50:44.521Z,85.15
2017-08-31T20:53:12.331Z,86.92
2017-08-31T20:55:40.914Z,86.87
2017-08-31T21:05:02.509Z,85.41
2017-08-31T21:07:30.239Z,85.51
2017-08-31T21:09:58.058Z,85.13
2017-08-31T21:12:25.881Z,85.33
2017-08-31T21:14:53.697Z,86.30
2017-08-31T21:17:21.462Z,87.55
2017-08-31T21:19:49.170Z,86.78
2017-08-31T21:22:16.960Z,86.57
2017-08-31T21:24:44.670Z,86.55
2017-08-31T21:27:12.458Z,86.39
2017-08-31T21:29:40.200Z,86.29
2017-08-31T21:45:00.487Z,86.09
2017-08-31T21:47:28.187Z,86.67
2017-08-31T21:49:55.889Z,86.68
2017-08-31T21:52:23.669Z,87.19
2017-08-31T21:54:51.357Z,86.73
2017-08-31T21:57:19.058Z,86.61
2017-08-31T21:59:46.801Z,86.66
2017-08-31T22:02:14.581Z,86.92
2017-08-31T22:04:42.302Z,87.25
2017-08-31T22:07:10.052Z,87.03
2017-08-31T22:09:37.785Z,86.65
2017-08-31T22:25:05.323Z,85.75
2017-08-31T22:35:02.385Z,87.31
2017-08-31T22:37:30.109Z,86.42
2017-08-31T22:39:58.677Z,86.17
2017-08-31T22:45:10.264Z,87.26
2017-08-31T22:47:38.010Z,86.95
2017-08-31T22:50:05.735Z,87.57
2017-08-31T23:05:04.101Z,87.03
2017-08-31T23:07:31.798Z,87.10
2017-08-31T23:09:59.538Z,86.75
2017-08-31T23:12:27.359Z,86.05
2017-08-31T23:14:55.086Z,86.64
2017-08-31T23:17:22.861Z,87.17
2017-08-31T23:25:02.290Z,87.40
2017-08-31T23:27:30.720Z,87.85
2017-08-31T23:29:58.427Z,87.59
2017-08-31T23:32:26.191Z,87.71
2017-08-31T23:34:53.881Z,87.43
2017-08-31T23:37:22.086Z,86.93
2017-08-31T23:39:49.806Z,87.49
2017-08-31T23:42:17.581Z,87.84
2017-08-31T23:55:03.125Z,88.64
2017-08-31T23:57:31.086Z,88.87
2017-08-31T23:59:58.781Z,88.60
